Airport View

Enter AWOS ICAO identifier for current METAR.

ex. KFNL

CYCD 112206Z 14005KT 2SM -RA BR BKN006 OVC014 07/07 A2986 RMK SF6SC2 CIG RAG SLP115

11 Dec 2019 22:45

Other Area AWOS: CWEL - CWGB - CWVF - CYVR

TAF AMD CYCD 112005Z 1120/1205 11008KT 2SM -RA BR OVC005 TEMPO 1120/1205 6SM -RA BR SCT005 OVC010 RMK NXT FCST BY 120000Z